Kezdőlap
METAR-TAF:

METAR-TAF

Repülőterek :

Volk Field Air National Guard Base

Camp Douglas, Wisconsin, Amerikai Egyesült Államok

földrajzi szélesség: 43-56N, földrajzi hosszúság: 090-16W, magasság: 277 m

Jelenlegi meteorológiai megfigyelések

A jelentés 28 perccel ezelõtt készült, 16:56 UTC
Észak-északnyugati szél 7 kt
Hőmérséklet 12°C
Páratartalom 32%
Légköri nyomás 1029 hPa
Látótávolság: 16.1 km
Szórványos felhőzet 5500 lábon

METAR: KVOK 111656Z 34007KT 10SM SCT055 12/M04 A3039 RMK AO2A SLP302

Idő: 12:24 (17:24 UTC)

Előrejelzés

A jelentés 24 perccel ezelõtt készült, 17:00 UTC
Az előrejelzés 11-én 17 óra UTC és 12-én 23 óra UTC között érvényes
Északi szél 9 kt
Látótávolság 10 km, vagy több
Szórványos felhőzet 6500 lábon

TAF: KVOK 111700Z 1117/1223 35009KT 9999 SCT065 QNH3029INS TX14/1217Z TN00/1211Z

Meteorológiai megfigyelések és előrejelzések több, mint 4000 repülőtéren (METAR és TAF jelentéseket).

A térképen piros és sárga pontok jelzik az elérhető meteorológiai állomásokat.

Mozgassa az egeret a pont fölött, hogy megjelenjen az állomás neve.

Azután kattintson az időjárási megfigyelések és előrejelzések megtekintéséhez.

A térkép megváltoztatása: kattintson a fekete keresztel jelölt zöld gombra ráközelítéshez, a vonallal jelölt zöld gombra távolításhoz, vagy a zöld nyilakra a szomszédos térképek eléréséhez.


METAR-TAF: